createdAt,value
2022-09-02T05:52:47.206Z,0.57
2022-09-02T05:55:15.966Z,0.80
2022-09-02T05:57:46.555Z,0.70
2022-09-02T06:00:20.789Z,0.55
2022-09-02T06:03:02.656Z,0.55
2022-09-02T06:05:38.456Z,0.57
2022-09-02T06:08:06.711Z,0.82
2022-09-02T06:10:42.217Z,0.80
2022-09-02T06:13:11.649Z,0.80
2022-09-02T06:15:46.195Z,0.73
2022-09-02T06:18:14.454Z,0.68
2022-09-02T06:20:45.856Z,0.70
2022-09-02T06:23:15.114Z,0.80
2022-09-02T06:25:44.830Z,0.60
2022-09-02T06:28:14.295Z,0.70
2022-09-02T06:30:44.755Z,0.57
2022-09-02T06:33:12.491Z,0.55
2022-09-02T06:35:42.619Z,0.80
2022-09-02T06:38:11.921Z,0.73
2022-09-02T06:40:52.150Z,0.60
2022-09-02T06:43:21.755Z,0.60
2022-09-02T06:45:50.475Z,0.80
2022-09-02T06:48:18.046Z,0.65
2022-09-02T06:50:46.644Z,0.60
2022-09-02T06:53:14.933Z,0.55
2022-09-02T06:55:44.479Z,0.70
2022-09-02T06:58:14.086Z,0.73
2022-09-02T07:00:42.647Z,0.80
2022-09-02T07:03:50.194Z,0.70
2022-09-02T07:06:18.152Z,0.70
2022-09-02T07:08:46.020Z,0.77
2022-09-02T07:11:22.853Z,0.70
2022-09-02T07:13:51.568Z,0.80
2022-09-02T07:16:26.826Z,0.70
2022-09-02T07:18:58.589Z,0.70
2022-09-02T07:21:26.352Z,0.80
2022-09-02T07:23:54.012Z,0.70
2022-09-02T07:26:22.631Z,0.80
2022-09-02T07:28:51.115Z,0.85
2022-09-02T07:31:19.008Z,0.90
2022-09-02T07:33:49.912Z,0.70
2022-09-02T07:36:21.634Z,0.73
2022-09-02T07:38:49.698Z,0.77
2022-09-02T07:41:17.580Z,0.70
2022-09-02T07:43:50.987Z,0.90
2022-09-02T07:46:20.317Z,0.77
2022-09-02T07:48:50.225Z,0.90
2022-09-02T07:51:19.232Z,0.80
2022-09-02T07:53:48.143Z,0.90
2022-09-02T07:56:15.572Z,0.93
2022-09-02T07:58:44.368Z,0.80
2022-09-02T08:01:13.327Z,0.60
2022-09-02T08:03:44.345Z,0.90
2022-09-02T08:06:14.029Z,0.80
2022-09-02T08:08:42.826Z,0.98
2022-09-02T08:11:10.540Z,0.93
2022-09-02T08:13:38.059Z,0.65
2022-09-02T08:16:06.302Z,0.80
2022-09-02T08:18:34.726Z,0.80
2022-09-02T08:21:02.599Z,1.00
2022-09-02T08:23:37.066Z,0.90
2022-09-02T08:28:33.557Z,1.00
2022-09-02T08:31:05.152Z,0.80
2022-09-02T08:33:32.918Z,0.98
2022-09-02T08:36:11.976Z,1.15
2022-09-02T08:38:39.850Z,1.10
2022-09-02T08:41:28.691Z,1.00
2022-09-02T08:43:59.157Z,0.80
2022-09-02T08:46:28.848Z,0.90
2022-09-02T08:49:04.235Z,1.10
2022-09-02T08:51:37.704Z,0.95
2022-09-02T08:54:14.587Z,1.30
2022-09-02T08:56:42.341Z,0.80
2022-09-02T08:59:10.496Z,1.00
2022-09-02T09:01:56.514Z,1.08
2022-09-02T09:04:49.954Z,1.10
2022-09-02T09:07:27.462Z,1.08
2022-09-02T09:10:14.024Z,0.95
2022-09-02T09:13:04.087Z,1.58
2022-09-02T09:15:46.371Z,1.20
2022-09-02T09:18:17.631Z,0.93
2022-09-02T09:20:46.178Z,0.80
2022-09-02T09:23:34.452Z,0.93
2022-09-02T09:26:05.898Z,1.40
2022-09-02T09:28:40.946Z,1.48
2022-09-02T09:31:11.043Z,1.05
2022-09-02T09:33:38.554Z,1.00
2022-09-02T09:36:06.147Z,1.30
2022-09-02T09:38:36.705Z,1.27
2022-09-02T09:41:20.595Z,1.33
2022-09-02T09:43:48.394Z,1.30
2022-09-02T09:46:27.847Z,1.20
2022-09-02T09:48:55.839Z,1.15
2022-09-02T09:51:23.376Z,1.30
2022-09-02T09:53:51.170Z,1.48
2022-09-02T09:56:26.577Z,1.00
2022-09-02T09:58:54.278Z,1.10
2022-09-02T10:01:35.146Z,1.37
2022-09-02T10:04:42.178Z,1.37
2022-09-02T10:06:59.718Z,1.40
2022-09-02T10:09:32.698Z,1.17
2022-09-02T10:12:11.880Z,1.10
2022-09-02T10:14:43.488Z,1.12
2022-09-02T10:17:35.428Z,1.50
2022-09-02T10:20:09.178Z,1.47
2022-09-02T10:22:59.574Z,1.10
2022-09-02T10:25:47.003Z,1.20
2022-09-02T10:28:32.960Z,1.30
2022-09-02T10:31:35.002Z,1.10
2022-09-02T10:34:24.529Z,1.58
2022-09-02T10:37:18.487Z,1.17
2022-09-02T10:39:55.698Z,1.30
2022-09-02T10:42:39.678Z,0.90
2022-09-02T10:45:37.195Z,1.48
2022-09-02T10:48:23.779Z,1.92
2022-09-02T10:51:03.476Z,1.40
2022-09-02T10:53:59.781Z,1.50
2022-09-02T10:56:41.554Z,1.40
2022-09-02T10:59:24.552Z,1.23
2022-09-02T11:01:55.353Z,1.10
2022-09-02T11:04:39.404Z,1.50
2022-09-02T11:07:10.863Z,1.00
2022-09-02T11:09:46.264Z,1.02
2022-09-02T11:12:18.475Z,1.35
2022-09-02T11:14:56.191Z,1.10
2022-09-02T11:17:45.625Z,1.20
2022-09-02T11:20:21.338Z,1.60
2022-09-02T11:22:59.932Z,1.20
2022-09-02T11:25:37.441Z,1.10
2022-09-02T11:28:23.279Z,1.40
2022-09-02T11:30:56.197Z,1.10
2022-09-02T11:33:29.743Z,1.10
2022-09-02T11:35:58.875Z,1.25
2022-09-02T11:39:12.372Z,1.42
2022-09-02T11:42:05.157Z,1.40
2022-09-02T11:45:25.781Z,1.20
2022-09-02T11:48:34.391Z,1.15
2022-09-02T11:53:56.139Z,1.20
2022-09-02T11:56:29.037Z,1.30
2022-09-02T11:58:56.868Z,1.17
2022-09-02T12:01:31.715Z,1.62
2022-09-02T12:07:10.024Z,1.40
2022-09-02T12:09:51.369Z,1.17
2022-09-02T12:12:37.379Z,1.30
2022-09-02T12:15:05.546Z,1.00
2022-09-02T12:17:44.560Z,1.20
2022-09-02T12:20:38.756Z,1.20
2022-09-02T12:23:08.225Z,1.30
2022-09-02T12:25:38.646Z,1.30
2022-09-02T12:28:26.264Z,1.40
2022-09-02T12:31:07.723Z,1.30
2022-09-02T12:33:38.108Z,1.35
2022-09-02T12:36:07.487Z,0.95
2022-09-02T12:38:40.246Z,1.60
2022-09-02T12:41:34.535Z,1.00
2022-09-02T12:44:54.027Z,1.23
2022-09-02T12:47:41.012Z,1.27
2022-09-02T12:50:33.300Z,1.10
2022-09-02T12:53:29.896Z,1.10
2022-09-02T12:56:01.514Z,1.67
2022-09-02T12:58:52.580Z,1.20
2022-09-02T13:01:30.848Z,1.27
2022-09-02T13:04:17.129Z,1.30
2022-09-02T13:07:07.260Z,1.65
2022-09-02T13:10:00.988Z,1.48
2022-09-02T13:12:41.148Z,1.42
2022-09-02T13:15:24.248Z,1.50
2022-09-02T13:18:13.419Z,1.60
2022-09-02T13:20:56.752Z,1.30
2022-09-02T13:24:03.067Z,1.02
2022-09-02T13:26:49.638Z,1.33
2022-09-02T13:29:41.577Z,1.65
2022-09-02T13:32:22.206Z,1.35
2022-09-02T13:34:51.482Z,1.40
2022-09-02T13:37:36.803Z,1.55
2022-09-02T13:40:20.077Z,1.50
2022-09-02T13:42:53.504Z,1.37
2022-09-02T13:45:23.724Z,1.50
2022-09-02T13:47:57.365Z,1.42
2022-09-02T13:50:27.911Z,1.30
2022-09-02T13:55:55.798Z,1.37
2022-09-02T13:58:29.440Z,1.70
2022-09-02T14:01:02.056Z,1.40
2022-09-02T14:03:32.949Z,1.20
2022-09-02T14:06:00.981Z,1.42
2022-09-02T14:08:30.716Z,1.42
2022-09-02T14:10:58.521Z,1.40
2022-09-02T14:13:27.206Z,1.60
2022-09-02T14:15:55.381Z,1.60
2022-09-02T14:18:25.000Z,1.73
2022-09-02T14:21:04.238Z,1.10
2022-09-02T14:23:36.013Z,1.50
2022-09-02T14:26:04.468Z,1.60
2022-09-02T14:28:33.898Z,1.40
2022-09-02T14:31:07.074Z,1.50
2022-09-02T14:33:47.350Z,1.33
2022-09-02T14:36:23.880Z,1.50
2022-09-02T14:38:52.667Z,1.60
2022-09-02T14:41:27.437Z,1.48
2022-09-02T14:43:59.876Z,1.50
2022-09-02T14:46:36.753Z,1.50
2022-09-02T14:49:09.611Z,1.58
2022-09-02T14:51:45.778Z,1.60
2022-09-02T14:54:40.140Z,1.90
2022-09-02T14:57:28.492Z,1.62
2022-09-02T15:00:21.432Z,1.45
2022-09-02T15:02:56.316Z,1.50
2022-09-02T15:05:24.646Z,1.58
2022-09-02T15:07:52.454Z,1.52
2022-09-02T15:10:20.473Z,1.80
2022-09-02T15:12:50.660Z,1.48
2022-09-02T15:15:18.265Z,1.50
2022-09-02T15:17:45.698Z,1.50
2022-09-02T15:20:13.391Z,1.40
2022-09-02T15:22:40.779Z,1.40
2022-09-02T15:25:08.727Z,1.70
2022-09-02T15:27:37.101Z,1.50
2022-09-02T15:30:06.069Z,1.48
2022-09-02T15:32:33.657Z,1.40
2022-09-02T15:35:01.394Z,1.35
2022-09-02T15:37:29.017Z,1.50
2022-09-02T15:39:56.694Z,1.55
2022-09-02T15:42:24.509Z,1.87
2022-09-02T15:44:51.954Z,1.98
2022-09-02T15:47:21.359Z,2.15
2022-09-02T15:49:49.124Z,2.00
2022-09-02T15:52:16.567Z,2.00
2022-09-02T15:54:43.998Z,2.03
2022-09-02T15:57:11.688Z,2.22
2022-09-02T15:59:39.166Z,2.30
2022-09-02T16:02:07.013Z,1.92
2022-09-02T16:04:34.762Z,1.98
2022-09-02T16:07:02.941Z,2.00
2022-09-02T16:09:30.410Z,2.25
2022-09-02T16:11:58.116Z,1.90
2022-09-02T16:14:25.979Z,1.87
2022-09-02T16:16:54.951Z,2.08
2022-09-02T16:19:24.676Z,1.92
2022-09-02T16:21:52.906Z,2.35
2022-09-02T16:24:21.659Z,2.33
2022-09-02T16:26:50.706Z,1.90
2022-09-02T16:29:19.505Z,1.90
2022-09-02T16:32:14.050Z,2.40
2022-09-02T16:34:36.076Z,2.22
2022-09-02T16:37:03.521Z,2.62
2022-09-02T16:39:30.979Z,2.58
2022-09-02T16:42:04.147Z,2.70
2022-09-02T16:44:33.933Z,2.70
2022-09-02T16:47:01.789Z,2.92
2022-09-02T16:49:29.176Z,2.45
2022-09-02T16:51:58.122Z,2.65
2022-09-02T16:54:31.558Z,2.28
2022-09-02T16:57:01.175Z,2.35
2022-09-02T16:59:31.484Z,2.70
2022-09-02T17:01:59.217Z,2.70
2022-09-02T17:04:26.772Z,2.08
2022-09-02T17:06:54.545Z,2.08
2022-09-02T17:09:22.221Z,2.28
2022-09-02T17:11:49.649Z,2.35
2022-09-02T17:14:17.908Z,2.25
2022-09-02T17:16:47.919Z,2.15
2022-09-02T17:19:22.189Z,2.20
2022-09-02T17:21:52.648Z,2.20
2022-09-02T17:24:25.433Z,2.33
2022-09-02T17:26:55.857Z,2.35
2022-09-02T17:29:47.937Z,2.58
2022-09-02T17:32:13.126Z,2.25
2022-09-02T17:34:41.119Z,2.58
2022-09-02T17:37:08.632Z,2.00
2022-09-02T17:39:36.627Z,2.33
2022-09-02T17:42:05.338Z,2.62
2022-09-02T17:44:38.719Z,2.35
2022-09-02T17:47:08.403Z,2.12
2022-09-02T17:49:36.860Z,2.50
2022-09-02T17:52:05.515Z,2.75
2022-09-02T17:54:34.481Z,2.55
2022-09-02T17:57:23.488Z,2.35
2022-09-02T18:00:17.505Z,1.90
2022-09-02T18:03:03.825Z,2.17
2022-09-02T18:05:36.842Z,2.10
2022-09-02T18:08:26.037Z,2.10
2022-09-02T18:10:58.068Z,2.53
2022-09-02T18:13:47.626Z,2.30
2022-09-02T18:16:30.603Z,2.42
2022-09-02T18:19:07.100Z,2.67
2022-09-02T18:22:05.082Z,2.20
2022-09-02T18:24:55.559Z,2.50
2022-09-02T18:27:41.771Z,2.92
2022-09-02T18:30:13.794Z,2.30
2022-09-02T18:33:20.253Z,2.95
2022-09-02T18:36:28.747Z,2.40
2022-09-02T18:39:21.278Z,2.22
2022-09-02T18:42:01.271Z,2.33
2022-09-02T18:44:40.192Z,2.67
2022-09-02T18:47:32.684Z,2.90
2022-09-02T18:50:04.677Z,3.10
2022-09-02T18:52:32.677Z,2.80
2022-09-02T18:55:00.005Z,2.72
2022-09-02T18:57:33.536Z,2.75
2022-09-02T19:00:10.918Z,3.17
2022-09-02T19:02:51.488Z,3.08
2022-09-02T19:05:22.368Z,2.70
2022-09-02T19:08:19.117Z,2.83
2022-09-02T19:10:47.049Z,2.85
2022-09-02T19:13:15.250Z,2.60
2022-09-02T19:15:42.904Z,3.25
2022-09-02T19:18:11.904Z,2.80
2022-09-02T19:20:39.726Z,2.97
2022-09-02T19:23:08.294Z,3.22
2022-09-02T19:25:41.686Z,3.20
2022-09-02T19:28:10.202Z,3.10
2022-09-02T19:30:40.454Z,3.25
2022-09-02T19:33:09.763Z,2.87
2022-09-02T19:35:38.412Z,2.62
2022-09-02T19:38:06.600Z,2.95
2022-09-02T19:40:34.134Z,3.12
2022-09-02T19:43:05.793Z,3.30
2022-09-02T19:45:37.722Z,3.20
2022-09-02T19:48:17.006Z,2.90
2022-09-02T19:50:46.544Z,3.55
2022-09-02T19:53:27.975Z,3.33
2022-09-02T19:56:06.766Z,3.40
2022-09-02T19:58:35.615Z,3.00
2022-09-02T20:01:05.455Z,3.72
2022-09-02T20:03:34.080Z,3.40
2022-09-02T20:06:01.566Z,3.65
2022-09-02T20:08:31.076Z,3.70
2022-09-02T20:11:01.474Z,3.30
2022-09-02T20:13:30.136Z,3.40
2022-09-02T20:15:57.612Z,3.65
2022-09-02T20:18:26.926Z,3.45
2022-09-02T20:20:57.478Z,3.40
2022-09-02T20:23:26.722Z,3.37
2022-09-02T20:26:12.613Z,3.90
2022-09-02T20:29:02.808Z,3.97
2022-09-02T20:31:39.362Z,4.05
2022-09-02T20:34:36.779Z,3.53
2022-09-02T20:37:16.147Z,3.40
2022-09-02T20:40:12.199Z,3.60
2022-09-02T20:42:58.523Z,3.33
2022-09-02T20:45:38.649Z,3.53
2022-09-02T20:48:19.428Z,3.60
2022-09-02T20:51:01.778Z,3.53
2022-09-02T20:53:32.355Z,3.78
2022-09-02T20:56:18.915Z,3.67
2022-09-02T20:59:01.326Z,3.75
2022-09-02T21:01:35.740Z,3.30
2022-09-02T21:04:24.556Z,3.62
2022-09-02T21:06:57.856Z,3.85
2022-09-02T21:09:42.972Z,4.18
2022-09-02T21:12:19.612Z,3.10
2022-09-02T21:14:49.157Z,3.50
2022-09-02T21:17:21.614Z,3.05
2022-09-02T21:19:55.175Z,3.05
2022-09-02T21:22:30.896Z,3.67
2022-09-02T21:25:25.839Z,4.47
2022-09-02T21:28:09.683Z,3.80
2022-09-02T21:30:40.408Z,3.40
2022-09-02T21:33:14.157Z,3.20
2022-09-02T21:35:48.014Z,3.50
2022-09-02T21:38:20.882Z,3.75
2022-09-02T21:40:54.380Z,3.45
2022-09-02T21:43:34.851Z,3.78
2022-09-02T21:46:40.594Z,3.58
2022-09-02T21:49:33.836Z,3.97
2022-09-02T21:52:30.602Z,3.72
2022-09-02T21:55:07.002Z,3.28
2022-09-02T21:57:53.816Z,3.75
2022-09-02T22:00:23.314Z,3.37
2022-09-02T22:03:03.902Z,3.30
2022-09-02T22:05:50.345Z,3.35
2022-09-02T22:08:29.743Z,2.92
2022-09-02T22:11:14.083Z,3.60
2022-09-02T22:13:42.245Z,3.40
2022-09-02T22:16:31.066Z,3.50
2022-09-02T22:19:02.269Z,3.70
2022-09-02T22:21:38.160Z,3.33
2022-09-02T22:24:06.839Z,3.37
2022-09-02T22:26:39.606Z,3.67
2022-09-02T22:29:17.784Z,3.42
2022-09-02T22:31:45.879Z,3.85
2022-09-02T22:34:16.151Z,3.70
2022-09-02T22:37:07.943Z,3.50
2022-09-02T22:39:39.891Z,3.40
2022-09-02T22:42:21.384Z,3.70
2022-09-02T22:45:18.554Z,4.15
2022-09-02T22:48:08.998Z,3.90
2022-09-02T22:50:58.361Z,3.55
2022-09-02T22:53:28.845Z,3.92
2022-09-02T22:55:59.398Z,3.70
2022-09-02T22:59:11.039Z,3.37
2022-09-02T23:01:45.243Z,3.50
2022-09-02T23:04:21.608Z,3.97
2022-09-02T23:06:52.551Z,3.40
2022-09-02T23:09:20.195Z,3.40
2022-09-02T23:11:53.361Z,3.28
2022-09-02T23:14:44.564Z,3.65
2022-09-02T23:17:33.642Z,3.60
2022-09-02T23:20:12.680Z,3.80
2022-09-02T23:22:49.489Z,3.62
2022-09-02T23:25:40.956Z,3.83
2022-09-02T23:28:16.775Z,3.80
2022-09-02T23:31:19.597Z,3.58
2022-09-02T23:33:51.316Z,4.53
2022-09-02T23:36:35.121Z,3.92
2022-09-02T23:39:18.834Z,3.95
2022-09-02T23:41:47.867Z,4.37
2022-09-02T23:44:16.557Z,3.75
2022-09-02T23:46:56.446Z,5.55
2022-09-02T23:49:49.241Z,3.40
2022-09-02T23:52:56.311Z,3.92
2022-09-02T23:55:38.277Z,4.12
2022-09-02T23:58:33.753Z,4.07
